Time;durP1;ratioP1;P1;durP2;ratioP2;P2;SDS_P1;SDS_P2;PMS_P1;PMS_P2;Temp;Humidity;BMP_temperature;BMP_pressure;BME280_temperature;BME280_humidity;BME280_pressure;Samples;Min_cycle;Max_cycle;Signal;HPM_P1;HPM_P2
2023/03/04 00:02:14;;;;;;;25.75;4.32;;;;;;;-144.73;92.67;54510.31;5044709;28;20029;-72
2023/03/04 00:04:39;;;;;;;26.00;3.85;;;;;;;-144.73;92.89;54493.91;5046243;28;20061;-72
2023/03/04 00:07:05;;;;;;;31.20;5.30;;;;;;;-144.73;92.46;54559.59;5046110;28;20516;-72
2023/03/04 00:09:30;;;;;;;32.40;4.75;;;;;;;-144.73;92.43;54495.97;5045610;28;20063;-72
2023/03/04 00:11:56;;;;;;;30.63;4.47;;;;;;;-144.73;92.25;54469.28;5071232;28;20260;-72
2023/03/04 00:14:21;;;;;;;25.38;4.78;;;;;;;-144.73;91.84;54469.28;5054014;28;20074;-72
2023/03/04 00:16:48;;;;;;;28.38;3.97;;;;;;;-144.73;91.45;54493.91;5045307;28;20044;-72
2023/03/04 00:19:13;;;;;;;29.27;4.25;;;;;;;-144.73;90.85;54485.69;5045511;28;20025;-72
2023/03/04 00:21:39;;;;;;;22.98;3.92;;;;;;;-144.73;91.15;54477.47;5053656;28;20036;-72
2023/03/04 00:24:05;;;;;;;30.98;4.70;;;;;;;-144.73;91.62;54493.91;5071652;28;20032;-72
2023/03/04 00:26:31;;;;;;;33.67;5.30;;;;;;;-144.73;91.65;54502.13;5053536;28;20036;-72
2023/03/04 00:28:56;;;;;;;28.80;5.07;;;;;;;-144.73;91.62;54477.47;5054002;28;20025;-72
2023/03/04 00:31:21;;;;;;;25.95;4.03;;;;;;;-144.73;91.18;54477.47;5069904;28;20451;-72
2023/03/04 00:33:47;;;;;;;28.05;4.28;;;;;;;-144.73;91.18;54477.47;5053745;28;20024;-72
2023/03/04 00:36:12;;;;;;;27.58;4.95;;;;;;;-144.73;91.33;54502.13;5071427;28;20116;-72
2023/03/04 00:38:38;;;;;;;27.77;4.28;;;;;;;-144.73;90.75;54514.44;5038122;28;20101;-72
2023/03/04 00:41:03;;;;;;;26.23;4.10;;;;;;;-144.73;90.64;54456.97;5053213;28;20037;-72
2023/03/04 00:43:30;;;;;;;28.13;4.40;;;;;;;-144.73;90.29;54563.69;5051320;28;20063;-72
2023/03/04 00:45:55;;;;;;;22.20;3.42;;;;;;;-144.73;90.55;54530.84;5032603;28;20065;-72
2023/03/04 00:48:21;;;;;;;23.95;3.85;;;;;;;-144.73;90.59;54502.13;5061308;28;20064;-72
2023/03/04 00:50:47;;;;;;;20.30;3.47;;;;;;;-144.73;90.55;54485.69;5053318;28;20045;-72
2023/03/04 00:53:13;;;;;;;32.72;3.58;;;;;;;-144.73;90.25;54514.44;5053511;28;20035;-72
2023/03/04 00:55:38;;;;;;;17.73;3.53;;;;;;;-144.73;89.86;54510.31;5071127;28;20119;-72
2023/03/04 00:58:04;;;;;;;23.98;3.85;;;;;;;-144.73;90.24;54473.38;5046885;28;20028;-72
2023/03/04 01:00:29;;;;;;;27.80;4.15;;;;;;;-144.73;90.29;54551.38;5051500;28;20024;-72
2023/03/04 01:02:55;;;;;;;24.60;3.83;;;;;;;-144.73;90.34;54483.66;5065503;28;20021;-72
2023/03/04 01:05:20;;;;;;;16.33;2.75;;;;;;;-144.73;90.23;54473.38;5050305;28;20033;-72
2023/03/04 01:07:46;;;;;;;22.15;3.25;;;;;;;-144.73;90.01;54465.16;5033673;28;20071;-72
2023/03/04 01:10:13;;;;;;;23.23;3.10;;;;;;;-144.73;89.75;54477.47;5049739;28;20032;-72
2023/03/04 01:12:41;;;;;;;17.70;3.55;;;;;;;-144.73;89.57;54487.75;5041475;28;20052;-72
2023/03/04 01:15:10;;;;;;;32.97;5.07;;;;;;;-144.73;89.93;54456.97;5048946;28;20364;-72
2023/03/04 01:17:36;;;;;;;32.17;3.65;;;;;;;-144.73;90.04;54508.28;5069467;28;20043;-72
2023/03/04 01:20:03;;;;;;;22.88;3.75;;;;;;;-144.73;90.01;54506.22;5053714;28;20376;-72
2023/03/04 01:22:28;;;;;;;29.58;3.35;;;;;;;-144.73;89.77;54522.63;5050547;28;20044;-72
2023/03/04 01:24:53;;;;;;;21.05;2.78;;;;;;;-144.73;89.95;54495.97;5046589;28;20062;-73
2023/03/04 01:27:19;;;;;;;25.35;3.70;;;;;;;-144.73;90.02;54502.13;5035227;28;20036;-71
2023/03/04 01:29:44;;;;;;;23.58;3.30;;;;;;;-144.73;90.22;54491.84;5043292;28;20070;-71
2023/03/04 01:32:10;;;;;;;19.65;2.70;;;;;;;-144.73;90.28;54543.16;5052102;28;20076;-71
2023/03/04 01:34:35;;;;;;;21.95;3.08;;;;;;;-144.73;90.45;54506.22;5049552;28;20033;-71
2023/03/04 01:37:01;;;;;;;27.48;3.22;;;;;;;-144.73;90.20;54461.06;5041110;28;20061;-71
2023/03/04 01:39:26;;;;;;;27.73;4.65;;;;;;;-144.73;90.22;54551.38;5049768;28;20067;-71
2023/03/04 01:41:51;;;;;;;16.55;2.42;;;;;;;-144.73;90.39;54506.22;5045853;28;20060;-71
2023/03/04 01:44:17;;;;;;;22.70;3.35;;;;;;;-144.73;90.15;54491.84;5052629;28;20115;-71
2023/03/04 01:46:48;;;;;;;20.08;2.53;;;;;;;-144.73;90.22;54444.66;5048720;28;20535;-72
2023/03/04 01:49:15;;;;;;;34.13;3.70;;;;;;;-144.73;89.56;54518.53;5041112;28;20025;-72
2023/03/04 01:51:48;;;;;;;34.15;2.67;;;;;;;-144.73;89.17;54518.53;5048487;28;20115;-72
2023/03/04 01:54:14;;;;;;;25.00;3.05;;;;;;;-144.73;90.15;54489.81;5045649;28;20017;-72
2023/03/04 01:56:40;;;;;;;23.75;2.75;;;;;;;-144.73;90.09;54465.16;5043928;28;20029;-72
2023/03/04 01:59:19;;;;;;;25.92;3.20;;;;;;;-144.73;89.78;54475.44;5047529;28;20552;-72
2023/03/04 02:01:51;;;;;;;24.15;2.85;;;;;;;-144.73;89.81;54518.53;5056240;28;20029;-72
2023/03/04 02:04:21;;;;;;;25.70;5.82;;;;;;;-144.73;89.72;54530.84;5048558;28;20025;-72
2023/03/04 02:06:47;;;;;;;37.58;3.15;;;;;;;-144.73;89.97;54473.38;5048753;28;20036;-72
2023/03/04 02:09:15;;;;;;;22.02;2.65;;;;;;;-144.73;90.32;54539.06;5048438;28;20024;-72
2023/03/04 02:11:41;;;;;;;16.63;2.60;;;;;;;-144.73;89.87;54516.47;5037145;28;20037;-71
2023/03/04 02:14:08;;;;;;;22.02;3.05;;;;;;;-144.73;88.85;54514.44;5043493;28;20069;-71
2023/03/04 02:16:33;;;;;;;16.75;2.92;;;;;;;-144.73;89.21;54473.38;5056645;28;20033;-71
2023/03/04 02:19:00;;;;;;;19.83;2.88;;;;;;;-144.73;89.71;54510.31;5050892;28;20089;-72
2023/03/04 02:21:28;;;;;;;26.25;3.67;;;;;;;-144.73;90.22;54493.91;5050284;28;20120;-71
2023/03/04 02:24:11;;;;;;;19.02;2.85;;;;;;;-144.73;90.20;54510.31;5045947;28;20040;-71
2023/03/04 02:26:40;;;;;;;19.88;2.80;;;;;;;-144.73;90.11;54522.63;5036040;28;20033;-71
2023/03/04 02:29:05;;;;;;;19.63;2.72;;;;;;;-144.73;90.28;54489.81;5052806;28;20028;-71
2023/03/04 02:31:34;;;;;;;27.92;5.18;;;;;;;-144.73;90.76;54502.13;5053645;28;20404;-71
2023/03/04 02:34:04;;;;;;;21.48;2.90;;;;;;;-144.73;90.97;54489.81;5041794;28;20070;-71
2023/03/04 02:36:31;;;;;;;21.70;3.13;;;;;;;-144.73;91.24;54512.38;5044070;28;20755;-71
2023/03/04 02:39:04;;;;;;;28.92;3.40;;;;;;;-144.73;91.65;54456.97;5044761;28;20020;-71
2023/03/04 02:41:30;;;;;;;25.80;2.83;;;;;;;-144.73;91.50;54489.81;5045026;28;20037;-71
2023/03/04 02:43:55;;;;;;;29.30;3.50;;;;;;;-144.73;91.15;54473.38;5085441;28;20116;-71
2023/03/04 02:46:22;;;;;;;25.50;2.90;;;;;;;-144.73;90.99;54502.13;5055616;28;20112;-71
2023/03/04 02:48:49;;;;;;;13.07;2.85;;;;;;;-144.73;91.77;54514.44;5047489;28;20123;-71
2023/03/04 02:51:14;;;;;;;21.77;3.15;;;;;;;-144.73;91.64;54485.69;5055373;28;20037;-71
2023/03/04 02:53:39;;;;;;;26.30;3.28;;;;;;;-144.73;91.93;54475.44;5053311;28;20029;-72
2023/03/04 02:56:05;;;;;;;28.35;3.17;;;;;;;-144.73;92.34;54473.38;5049564;28;20056;-72
2023/03/04 02:58:31;;;;;;;31.90;3.30;;;;;;;-144.73;92.41;54498.00;5063440;28;20490;-71
2023/03/04 03:00:57;;;;;;;24.05;3.58;;;;;;;-144.73;93.13;54452.84;5050139;28;20033;-71
2023/03/04 03:03:22;;;;;;;21.38;3.25;;;;;;;-144.73;93.74;54506.22;5052259;28;20024;-71
2023/03/04 03:05:48;;;;;;;25.52;4.00;;;;;;;-144.73;93.83;54506.22;5046294;28;20040;-71
2023/03/04 03:08:13;;;;;;;16.55;3.38;;;;;;;-144.73;93.20;54463.13;5040000;28;20068;-72
2023/03/04 03:10:39;;;;;;;28.40;3.85;;;;;;;-144.73;93.97;54506.22;5043041;28;20167;-72
2023/03/04 03:13:04;;;;;;;17.60;3.30;;;;;;;-144.73;93.80;54518.53;5049786;28;20025;-72
2023/03/04 03:15:29;;;;;;;30.80;3.10;;;;;;;-144.73;93.73;54456.97;5054868;28;20162;-72
2023/03/04 03:17:56;;;;;;;19.90;3.42;;;;;;;-144.73;93.65;54477.47;5055353;28;20035;-72
2023/03/04 03:20:21;;;;;;;22.95;4.10;;;;;;;-144.73;94.02;54485.69;5072955;28;20029;-71
2023/03/04 03:22:47;;;;;;;19.77;2.90;;;;;;;-144.73;93.84;54489.81;5055677;28;20066;-71
2023/03/04 03:25:15;;;;;;;23.63;3.63;;;;;;;-144.73;94.03;54506.22;5047422;28;20534;-72
2023/03/04 03:27:40;;;;;;;33.65;2.88;;;;;;;-144.73;93.53;54469.28;5064705;28;20032;-71
2023/03/04 03:30:10;;;;;;;25.52;4.80;;;;;;;-144.73;92.54;54489.81;5048831;28;20103;-72
2023/03/04 03:32:36;;;;;;;25.85;4.00;;;;;;;-144.73;91.93;54498.00;5060603;28;20050;-74
2023/03/04 03:35:02;;;;;;;23.42;3.17;;;;;;;-144.73;91.80;54444.66;5040492;28;20059;-71
2023/03/04 03:37:27;;;;;;;23.42;3.45;;;;;;;-144.73;91.65;54539.06;5046494;28;20086;-72
2023/03/04 03:39:52;;;;;;;23.35;3.20;;;;;;;-144.73;91.63;54493.91;5043214;28;20048;-72
2023/03/04 03:42:18;;;;;;;32.08;4.13;;;;;;;-144.73;92.16;54452.84;5041883;28;20044;-72
2023/03/04 03:44:43;;;;;;;16.30;3.38;;;;;;;-144.73;92.47;54563.69;5054428;28;20119;-72
2023/03/04 03:47:09;;;;;;;22.48;3.38;;;;;;;-144.73;92.34;54498.00;5048324;28;20051;-72
2023/03/04 03:52:10;;;;;;;24.85;3.63;;;;;;;-144.73;92.38;54473.38;5053626;28;20075;-73
2023/03/04 03:54:36;;;;;;;21.38;3.35;;;;;;;-144.73;93.31;54456.97;5043619;28;20060;-73
2023/03/04 03:57:01;;;;;;;25.35;3.33;;;;;;;-144.73;94.29;54502.13;5033727;28;20037;-74
2023/03/04 03:59:26;;;;;;;27.65;4.88;;;;;;;-144.73;94.93;54500.06;5047286;28;20365;-73
2023/03/04 04:01:52;;;;;;;25.70;3.28;;;;;;;-144.73;95.50;54477.47;5071235;28;20056;-73
2023/03/04 04:04:17;;;;;;;24.52;3.75;;;;;;;-144.73;95.89;54469.28;5061786;28;20017;-73
2023/03/04 04:06:43;;;;;;;19.55;3.10;;;;;;;-144.73;96.28;54452.84;5052561;28;20040;-74
2023/03/04 04:09:08;;;;;;;27.17;4.25;;;;;;;-144.73;95.26;54487.75;5050549;28;20024;-73
2023/03/04 04:11:33;;;;;;;22.45;3.38;;;;;;;-144.73;95.44;54485.69;5065402;28;20037;-73
2023/03/04 04:13:58;;;;;;;24.20;3.97;;;;;;;-144.73;94.89;54514.44;5050004;28;20028;-73
2023/03/04 04:16:24;;;;;;;20.98;2.88;;;;;;;-144.73;95.09;54489.81;5045436;28;20043;-73
2023/03/04 04:18:49;;;;;;;31.20;3.53;;;;;;;-144.73;94.56;54469.28;5044822;28;20031;-74
2023/03/04 04:21:15;;;;;;;17.85;3.13;;;;;;;-144.73;94.01;54514.44;5049005;28;20111;-73
2023/03/04 04:23:40;;;;;;;20.02;3.25;;;;;;;-144.73;94.13;54489.81;5045239;28;20025;-74
2023/03/04 04:26:05;;;;;;;29.92;3.47;;;;;;;-144.73;94.29;54518.53;5053109;28;20043;-73
2023/03/04 04:28:32;;;;;;;24.33;4.22;;;;;;;-144.73;94.26;54547.28;5053508;28;20048;-73
2023/03/04 04:30:58;;;;;;;27.48;3.28;;;;;;;-144.73;93.68;54518.53;5069952;28;20040;-73
2023/03/04 04:33:24;;;;;;;27.98;3.80;;;;;;;-144.73;92.97;54510.31;5053119;28;20081;-72
2023/03/04 04:35:49;;;;;;;32.35;4.22;;;;;;;-144.73;90.84;54481.59;5035996;28;20058;-72
2023/03/04 04:38:15;;;;;;;27.05;3.65;;;;;;;-144.73;90.27;54485.69;5038463;28;20028;-72
2023/03/04 04:40:41;;;;;;;28.88;4.82;;;;;;;-144.73;89.13;54465.16;5058484;28;20071;-73
2023/03/04 04:43:07;;;;;;;30.13;4.80;;;;;;;-144.73;88.03;54502.13;5039430;28;20021;-73
2023/03/04 04:45:34;;;;;;;24.55;3.72;;;;;;;-144.73;86.85;54485.69;5047871;28;20035;-73
2023/03/04 04:47:59;;;;;;;39.80;4.13;;;;;;;-144.73;86.17;54481.59;5048537;28;20104;-73
2023/03/04 04:50:24;;;;;;;21.20;3.67;;;;;;;-144.73;84.60;54510.31;5040354;28;20115;-73
2023/03/04 04:52:50;;;;;;;32.40;4.32;;;;;;;-144.73;84.18;54506.22;5052963;28;20024;-74
2023/03/04 04:55:15;;;;;;;22.27;3.53;;;;;;;-144.73;84.00;54502.13;5052494;28;20472;-73
2023/03/04 04:57:41;;;;;;;20.60;3.05;;;;;;;-144.73;84.50;54477.47;5043297;28;20400;-74
2023/03/04 05:00:08;;;;;;;34.78;3.83;;;;;;;-144.73;83.85;54498.00;5052657;28;20533;-74
2023/03/04 05:02:35;;;;;;;24.45;3.90;;;;;;;-144.73;83.11;54498.00;5051793;28;20028;-74
2023/03/04 05:05:04;;;;;;;31.23;4.25;;;;;;;-144.73;83.44;54522.63;5070160;28;20056;-74
2023/03/04 05:07:30;;;;;;;25.65;4.22;;;;;;;-144.73;83.00;54481.59;5069983;28;20040;-74
2023/03/04 05:09:55;;;;;;;27.55;3.75;;;;;;;-144.73;82.60;54506.22;5041400;28;20040;-75
2023/03/04 05:12:20;;;;;;;25.67;3.95;;;;;;;-144.73;83.34;54481.59;5065491;28;20031;-75
2023/03/04 05:14:46;;;;;;;33.65;3.92;;;;;;;-144.73;82.86;54502.13;5044236;28;20063;-74
2023/03/04 05:17:11;;;;;;;23.90;3.47;;;;;;;-144.73;82.90;54522.63;5052136;28;20039;-74
2023/03/04 05:19:36;;;;;;;33.80;3.65;;;;;;;-144.73;82.65;54477.47;5049762;28;20056;-74
2023/03/04 05:22:02;;;;;;;20.73;3.58;;;;;;;-144.73;82.16;54516.47;5052468;28;20036;-74
2023/03/04 05:24:27;;;;;;;26.90;3.70;;;;;;;-144.73;82.33;54502.13;5052330;28;20103;-74
2023/03/04 05:26:52;;;;;;;33.80;5.03;;;;;;;-144.73;82.19;54481.59;5070260;28;20036;-74
2023/03/04 05:29:18;;;;;;;26.40;4.18;;;;;;;-144.73;82.13;54510.31;5044781;28;20031;-74
2023/03/04 05:31:43;;;;;;;23.33;4.00;;;;;;;-144.73;83.00;54463.13;5050035;28;20057;-75
2023/03/04 05:34:08;;;;;;;20.63;3.40;;;;;;;-144.73;84.33;54506.22;5051924;28;20053;-74
2023/03/04 05:36:34;;;;;;;31.83;3.85;;;;;;;-144.73;84.30;54502.13;5052503;28;20127;-74
2023/03/04 05:38:59;;;;;;;29.10;4.80;;;;;;;-144.73;84.62;54493.91;5052641;28;20025;-75
2023/03/04 05:41:25;;;;;;;28.45;3.58;;;;;;;-144.73;85.13;54473.38;5048626;28;20055;-74
2023/03/04 05:43:50;;;;;;;25.98;3.63;;;;;;;-144.73;87.91;54502.13;5043649;28;20177;-74
2023/03/04 05:46:22;;;;;;;21.75;3.70;;;;;;;-144.73;88.45;54498.00;5043770;28;20057;-74
2023/03/04 05:48:48;;;;;;;31.13;5.28;;;;;;;-144.73;89.41;54493.91;5067526;28;20029;-75
2023/03/04 05:51:13;;;;;;;28.25;3.78;;;;;;;-144.73;89.37;54543.16;5069359;28;20090;-74
2023/03/04 05:53:40;;;;;;;24.52;4.35;;;;;;;-144.73;89.81;54506.22;5070261;28;20051;-74
2023/03/04 05:56:08;;;;;;;27.75;5.18;;;;;;;-144.73;90.02;54489.81;5047182;28;20044;-74
2023/03/04 05:58:33;;;;;;;39.40;5.15;;;;;;;-144.73;89.42;54506.22;5049042;28;20024;-74
2023/03/04 06:00:59;;;;;;;21.10;3.85;;;;;;;-144.73;90.74;54502.13;5053151;28;20040;-77
2023/03/04 06:03:25;;;;;;;33.45;4.47;;;;;;;-144.73;90.91;54498.00;5073631;28;20091;-77
2023/03/04 06:05:50;;;;;;;34.45;3.80;;;;;;;-144.73;90.97;54510.31;5054408;28;20501;-76
2023/03/04 06:08:15;;;;;;;28.48;3.83;;;;;;;-144.73;89.63;54510.31;5055842;28;20031;-77
2023/03/04 06:10:41;;;;;;;39.20;6.53;;;;;;;-144.73;88.54;54547.28;5054601;28;20096;-77
2023/03/04 06:13:08;;;;;;;31.00;4.00;;;;;;;-144.73;86.83;54504.16;5055073;28;20024;-77
2023/03/04 06:15:33;;;;;;;59.97;6.90;;;;;;;-144.73;85.76;54514.44;5054573;28;20017;-77
2023/03/04 06:17:58;;;;;;;35.40;5.50;;;;;;;-144.73;85.46;54498.00;5055228;28;20046;-76
2023/03/04 06:20:24;;;;;;;43.50;5.63;;;;;;;-144.73;84.73;54483.66;5054366;28;20106;-76
2023/03/04 06:22:49;;;;;;;48.70;6.70;;;;;;;-144.73;83.21;54481.59;5055358;28;20495;-77
2023/03/04 06:25:15;;;;;;;63.92;8.20;;;;;;;-144.73;80.56;54477.47;5054901;28;20105;-76
2023/03/04 06:27:41;;;;;;;46.00;6.22;;;;;;;-144.73;80.68;54485.69;5055030;28;20039;-76
2023/03/04 06:30:07;;;;;;;58.50;6.90;;;;;;;-144.73;80.30;54506.22;5054676;28;20020;-76
2023/03/04 06:32:32;;;;;;;45.60;7.20;;;;;;;-144.73;80.07;54512.38;5054813;28;20041;-76
2023/03/04 06:34:58;;;;;;;57.88;6.07;;;;;;;-144.73;79.90;54477.47;5054882;28;20033;-77
2023/03/04 06:37:23;;;;;;;50.20;6.65;;;;;;;-144.73;79.54;54489.81;5054705;28;20048;-77
2023/03/04 06:39:49;;;;;;;42.22;5.93;;;;;;;-144.73;78.90;54489.81;5055739;28;20021;-76
2023/03/04 06:42:15;;;;;;;38.28;5.45;;;;;;;-144.73;78.88;54500.06;5057131;28;20060;-76
2023/03/04 06:44:40;;;;;;;44.00;7.03;;;;;;;-144.73;78.95;54477.47;5057023;28;20054;-77
2023/03/04 06:47:06;;;;;;;50.75;6.82;;;;;;;-144.73;79.31;54510.31;5057922;28;20041;-76
2023/03/04 06:49:31;;;;;;;46.72;6.85;;;;;;;-144.73;79.14;54463.13;5058321;28;20016;-76
2023/03/04 06:51:57;;;;;;;41.58;6.55;;;;;;;-144.73;79.17;54469.28;5057745;28;20090;-77
2023/03/04 06:54:22;;;;;;;39.40;6.22;;;;;;;-144.73;79.07;54485.69;5058345;28;20477;-76
2023/03/04 06:56:47;;;;;;;49.28;6.55;;;;;;;-144.73;78.89;54506.22;5058276;28;20416;-76
2023/03/04 06:59:13;;;;;;;38.72;5.35;;;;;;;-144.73;79.95;54493.91;5058600;28;20023;-71
2023/03/04 07:01:38;;;;;;;54.17;7.60;;;;;;;-144.73;79.72;54444.66;5054895;28;20519;-71
2023/03/04 07:04:04;;;;;;;34.00;5.30;;;;;;;-144.73;79.67;54493.91;5051713;28;20540;-71
2023/03/04 07:06:29;;;;;;;45.58;5.55;;;;;;;-144.73;79.56;54483.66;5053244;28;20028;-71
2023/03/04 07:08:56;;;;;;;45.33;6.22;;;;;;;-144.73;80.66;54510.31;5054667;28;20021;-71
2023/03/04 07:11:22;;;;;;;33.67;4.85;;;;;;;-144.73;81.40;54485.69;5054169;28;20037;-71
2023/03/04 07:13:49;;;;;;;47.53;4.95;;;;;;;-144.73;81.41;54477.47;5054144;28;20017;-71
2023/03/04 07:16:18;;;;;;;40.00;5.80;;;;;;;-144.73;80.79;54510.31;5053844;28;20107;-70
2023/03/04 07:18:44;;;;;;;40.30;6.93;;;;;;;-144.73;80.78;54459.00;5052542;28;20028;-71
2023/03/04 07:21:10;;;;;;;39.78;5.35;;;;;;;-144.73;80.49;54477.47;5054260;28;20032;-71
2023/03/04 07:23:36;;;;;;;35.70;4.85;;;;;;;-144.73;80.34;54485.69;5055343;28;20054;-71
2023/03/04 07:26:01;;;;;;;35.47;4.80;;;;;;;-144.73;79.87;54469.28;5046340;28;20025;-71
2023/03/04 07:28:27;;;;;;;37.60;5.35;;;;;;;-144.73;79.84;54506.22;5055426;28;20385;-71
2023/03/04 07:30:52;;;;;;;31.50;5.22;;;;;;;-144.73;79.53;54477.47;5064321;28;20049;-71
2023/03/04 07:33:18;;;;;;;31.77;5.80;;;;;;;-144.73;80.19;54493.91;5045634;28;20012;-71
2023/03/04 07:35:43;;;;;;;34.83;5.75;;;;;;;-144.73;81.15;54479.53;5053933;28;20126;-71
2023/03/04 07:38:09;;;;;;;38.15;4.78;;;;;;;-144.73;80.31;54512.38;5049791;28;20031;-71
2023/03/04 07:40:34;;;;;;;36.33;4.53;;;;;;;-144.73;80.78;54459.00;5051588;28;20108;-71
2023/03/04 07:43:00;;;;;;;33.35;5.22;;;;;;;-144.73;81.04;54485.69;5070339;28;20487;-70
2023/03/04 07:45:25;;;;;;;30.45;4.32;;;;;;;-144.73;81.42;54452.84;5051817;28;20403;-71
2023/03/04 07:47:51;;;;;;;32.65;4.72;;;;;;;-144.73;81.32;54493.91;5053199;28;20028;-71
2023/03/04 07:50:17;;;;;;;39.75;5.63;;;;;;;-144.73;80.92;54477.47;5053071;28;20024;-71
2023/03/04 07:52:45;;;;;;;45.88;5.78;;;;;;;-144.73;80.25;54481.59;5054242;28;20032;-70
2023/03/04 07:55:13;;;;;;;53.53;6.10;;;;;;;-144.73;79.64;54463.13;5053911;28;20020;-70
2023/03/04 07:57:39;;;;;;;41.67;6.03;;;;;;;-144.73;78.50;54485.69;5051811;28;20136;-70
2023/03/04 08:00:05;;;;;;;59.95;7.30;;;;;;;-144.73;77.63;54473.38;5050187;28;20025;-70
2023/03/04 08:02:31;;;;;;;67.63;8.55;;;;;;;-144.73;77.48;54493.91;5053448;28;20115;-70
2023/03/04 08:04:56;;;;;;;42.15;6.63;;;;;;;-144.73;76.79;54493.91;5052955;28;20109;-70
2023/03/04 08:07:22;;;;;;;51.08;6.53;;;;;;;-144.73;76.64;54456.97;5050922;28;20037;-70
2023/03/04 08:09:48;;;;;;;37.13;5.38;;;;;;;-144.73;75.75;54473.38;5043842;28;20025;-69
2023/03/04 08:12:13;;;;;;;36.95;5.47;;;;;;;-144.73;77.02;54489.81;5050789;28;20520;-70
2023/03/04 08:14:39;;;;;;;45.72;6.90;;;;;;;-144.73;77.56;54463.13;5054372;28;20032;-70
2023/03/04 08:17:04;;;;;;;62.00;8.52;;;;;;;-144.73;77.69;54495.97;5045445;28;20071;-70
2023/03/04 08:19:29;;;;;;;51.35;7.20;;;;;;;-144.73;77.55;54539.06;5053791;28;20031;-70
2023/03/04 08:21:55;;;;;;;46.63;5.80;;;;;;;-144.73;77.15;54481.59;5053083;28;20039;-70
2023/03/04 08:24:20;;;;;;;43.60;7.22;;;;;;;-144.73;77.29;54465.16;5048105;28;20017;-70
2023/03/04 08:26:48;;;;;;;61.03;10.25;;;;;;;-144.73;77.07;54514.44;5050224;28;20040;-70
2023/03/04 08:29:19;;;;;;;46.78;6.55;;;;;;;-144.73;76.99;54452.84;5053701;28;20024;-70
2023/03/04 08:31:45;;;;;;;42.65;6.80;;;;;;;-144.73;76.22;54506.22;5053170;28;20046;-71
2023/03/04 08:34:13;;;;;;;43.92;7.70;;;;;;;-144.73;75.78;54469.28;5053244;28;20106;-70
2023/03/04 08:36:39;;;;;;;54.00;6.28;;;;;;;-144.73;76.08;54473.38;5053075;28;20058;-70
2023/03/04 08:39:05;;;;;;;39.00;8.13;;;;;;;-144.73;75.88;54489.81;5053446;28;20020;-70
2023/03/04 08:41:31;;;;;;;49.53;8.60;;;;;;;-144.73;76.10;54465.16;5044621;28;20433;-70
2023/03/04 08:43:56;;;;;;;49.08;7.07;;;;;;;-144.73;76.67;54477.47;5044650;28;20025;-69
2023/03/04 08:46:22;;;;;;;56.85;7.50;;;;;;;-144.73;76.72;54473.38;5053006;28;20025;-69
2023/03/04 08:48:47;;;;;;;56.80;6.70;;;;;;;-144.73;76.67;54489.81;5036859;28;20021;-71
2023/03/04 08:51:14;;;;;;;48.67;7.65;;;;;;;-144.73;76.77;54469.28;5052640;28;20493;-70
2023/03/04 08:53:52;;;;;;;43.83;7.40;;;;;;;-144.73;77.22;54493.91;5067806;27;20859;-69
2023/03/04 08:56:17;;;;;;;42.58;6.88;;;;;;;-144.73;76.44;54483.66;5059337;28;20064;-70
2023/03/04 08:58:43;;;;;;;59.08;9.00;;;;;;;-144.73;75.29;54502.13;5081955;28;20029;-70
2023/03/04 09:01:10;;;;;;;43.45;6.68;;;;;;;-144.73;76.01;54452.84;5073807;28;20056;-70
2023/03/04 09:03:37;;;;;;;54.00;7.82;;;;;;;-144.73;75.10;54518.53;5064553;28;20111;-69
2023/03/04 09:06:03;;;;;;;49.45;7.60;;;;;;;-144.73;74.35;54420.00;5064110;28;20036;-69
2023/03/04 09:08:30;;;;;;;53.10;6.22;;;;;;;-144.73;73.91;54448.75;5070668;28;20016;-70
2023/03/04 09:10:55;;;;;;;62.42;9.25;;;;;;;-144.73;73.78;54444.66;5077127;28;20070;-68
2023/03/04 09:13:21;;;;;;;33.33;6.97;;;;;;;-144.73;73.41;54477.47;5071767;28;20032;-69
2023/03/04 09:15:50;;;;;;;51.17;8.05;;;;;;;-144.73;73.70;54493.91;5066686;28;20043;-69
2023/03/04 09:18:16;;;;;;;56.38;9.77;;;;;;;-144.73;74.37;54469.28;5064029;28;20067;-67
2023/03/04 09:20:42;;;;;;;52.38;7.82;;;;;;;-144.73;74.80;54487.75;5064088;28;20635;-70
2023/03/04 09:23:08;;;;;;;48.55;7.38;;;;;;;-144.73;74.09;54491.84;5063383;28;20103;-69
2023/03/04 09:25:36;;;;;;;62.83;8.27;;;;;;;-144.73;74.59;54485.69;5062863;28;20099;-67
2023/03/04 09:28:01;;;;;;;68.88;7.43;;;;;;;-144.73;74.28;54467.22;5071393;28;20486;-70
2023/03/04 09:30:27;;;;;;;50.72;7.30;;;;;;;-144.73;74.51;54456.97;5063889;28;20029;-69
2023/03/04 09:32:52;;;;;;;53.63;6.82;;;;;;;-144.73;75.45;54493.91;5063321;28;20013;-69
2023/03/04 09:35:18;;;;;;;46.40;6.78;;;;;;;-144.73;76.18;54430.28;5085666;28;20036;-68
2023/03/04 09:37:45;;;;;;;42.00;6.40;;;;;;;-144.73;74.35;54489.81;5062821;28;20059;-68
2023/03/04 09:40:18;;;;;;;43.42;6.57;;;;;;;-144.73;72.38;54485.69;5062992;28;20021;-69
2023/03/04 09:42:48;;;;;;;46.22;7.70;;;;;;;-144.73;72.54;54473.38;5064051;28;20063;-70
2023/03/04 09:45:17;;;;;;;41.90;7.30;;;;;;;-144.73;71.55;54465.16;5074438;28;20075;-70
2023/03/04 09:47:44;;;;;;;46.35;5.30;;;;;;;-144.73;71.40;54436.44;5066728;28;20020;-67
2023/03/04 09:50:11;;;;;;;51.58;6.60;;;;;;;-144.73;70.97;54506.22;5063721;28;20036;-68
2023/03/04 09:53:06;;;;;;;37.22;5.93;;;;;;;-144.73;70.73;54481.59;5061092;28;20039;-70
2023/03/04 09:55:37;;;;;;;40.47;5.40;;;;;;;-144.73;70.16;54452.84;5065729;28;20025;-70
2023/03/04 09:58:10;;;;;;;40.47;8.02;;;;;;;-144.73;70.76;54493.91;5075990;28;20028;-70
2023/03/04 10:00:50;;;;;;;47.20;8.02;;;;;;;-144.73;70.50;54461.06;5062088;28;20053;-71
2023/03/04 10:03:23;;;;;;;51.70;6.78;;;;;;;-144.73;71.26;54498.00;5071604;28;20021;-69
2023/03/04 10:06:04;;;;;;;42.35;5.68;;;;;;;-144.73;71.49;54465.16;5057684;28;20121;-68
2023/03/04 10:08:44;;;;;;;57.10;7.22;;;;;;;-144.73;71.57;54469.28;5051508;28;20033;-70
2023/03/04 10:11:22;;;;;;;53.22;7.07;;;;;;;-144.73;72.20;54459.00;5058002;28;20072;-70
2023/03/04 10:14:07;;;;;;;42.88;6.82;;;;;;;-144.73;72.19;54456.97;5057039;28;20375;-70
2023/03/04 10:16:43;;;;;;;32.78;6.75;;;;;;;-144.73;71.97;54487.75;5060993;28;20062;-68
2023/03/04 10:19:37;;;;;;;38.50;6.05;;;;;;;-144.73;71.56;54514.44;5054513;28;20048;-70
2023/03/04 10:22:17;;;;;;;41.03;6.45;;;;;;;-144.73;71.41;54502.13;5011128;28;20033;-69
2023/03/04 10:24:45;;;;;;;47.17;6.78;;;;;;;-144.73;71.66;54473.38;5068878;28;20031;-70
2023/03/04 10:27:15;;;;;;;38.08;7.28;;;;;;;-144.73;70.50;54473.38;5041768;28;20040;-68
2023/03/04 10:29:41;;;;;;;46.55;7.05;;;;;;;-144.73;70.32;54481.59;5053131;28;20021;-69
2023/03/04 10:32:13;;;;;;;45.38;7.93;;;;;;;-144.73;70.53;54444.66;5058579;28;20044;-69
2023/03/04 10:34:38;;;;;;;55.65;7.40;;;;;;;-144.73;70.21;54469.28;5061542;28;20037;-69
2023/03/04 10:37:07;;;;;;;58.10;7.35;;;;;;;-144.73;70.21;54473.38;5061842;28;20041;-69
2023/03/04 10:39:39;;;;;;;55.75;7.40;;;;;;;-144.73;69.62;54452.84;5049181;28;20064;-68
2023/03/04 10:42:13;;;;;;;41.42;7.10;;;;;;;-144.73;70.41;54461.06;5055794;28;20040;-69
2023/03/04 10:44:50;;;;;;;50.45;7.72;;;;;;;-144.73;70.43;54489.81;5043678;28;20086;-69
2023/03/04 10:47:16;;;;;;;51.45;7.25;;;;;;;-144.73;70.59;54473.38;5047695;28;20087;-69
2023/03/04 10:49:51;;;;;;;47.65;7.55;;;;;;;-144.73;70.31;54469.28;5049875;28;20037;-70
2023/03/04 10:52:30;;;;;;;57.13;7.97;;;;;;;-144.73;70.30;54452.84;5026174;28;20030;-69
2023/03/04 10:54:59;;;;;;;53.70;6.70;;;;;;;-144.73;69.74;54438.50;5038487;28;20098;-69
2023/03/04 10:57:35;;;;;;;39.33;6.00;;;;;;;-144.73;70.15;54452.84;5031554;28;20029;-70
2023/03/04 11:00:27;;;;;;;58.20;8.73;;;;;;;-144.73;69.96;54452.84;5029331;28;20406;-69
2023/03/04 11:03:12;;;;;;;47.72;8.68;;;;;;;-144.73;69.89;54473.38;5029600;28;20091;-68
2023/03/04 11:05:37;;;;;;;53.03;8.00;;;;;;;-144.73;69.97;54463.13;5032777;28;20103;-70
2023/03/04 11:08:02;;;;;;;49.65;6.75;;;;;;;-144.73;69.04;54473.38;5033197;28;20483;-67
2023/03/04 11:10:38;;;;;;;35.72;5.40;;;;;;;-144.73;68.41;54465.16;5031269;28;20037;-70
2023/03/04 11:13:10;;;;;;;44.13;7.45;;;;;;;-144.73;67.32;54465.16;5026997;28;20025;-70